Time;durP1;ratioP1;P1;durP2;ratioP2;P2;SDS_P1;SDS_P2;PMS_P1;PMS_P2;Temp;Humidity;BMP_temperature;BMP_pressure;BME280_temperature;BME280_humidity;BME280_pressure;Samples;Min_cycle;Max_cycle;Signal;HPM_P1;HPM_P2
2023/04/07 00:01:32;;;;;;;37.53;18.15;;;;;;;5.92;100.00;101364.09;4965035;28;21230;-72
2023/04/07 00:03:57;;;;;;;37.30;17.70;;;;;;;5.92;100.00;101361.47;4966475;28;20038;-73
2023/04/07 00:06:26;;;;;;;35.25;17.25;;;;;;;5.93;100.00;101360.56;4966541;28;20041;-73
2023/04/07 00:08:51;;;;;;;37.97;18.52;;;;;;;5.94;100.00;101359.72;4948540;28;20206;-73
2023/04/07 00:11:17;;;;;;;39.95;18.10;;;;;;;5.93;100.00;101352.69;4949983;28;20061;-73
2023/04/07 00:13:43;;;;;;;38.15;17.98;;;;;;;5.93;100.00;101356.19;4926387;28;20030;-75
2023/04/07 00:16:08;;;;;;;41.60;18.70;;;;;;;5.94;100.00;101351.81;4967750;28;20375;-77
2023/04/07 00:18:34;;;;;;;39.67;18.60;;;;;;;5.95;100.00;101356.19;4971718;28;20114;-76
2023/04/07 00:20:59;;;;;;;39.38;18.75;;;;;;;5.95;100.00;101350.91;4968754;28;20250;-73
2023/04/07 00:23:26;;;;;;;41.67;17.98;;;;;;;5.94;100.00;101352.66;4970562;28;20042;-72
2023/04/07 00:25:51;;;;;;;38.28;18.65;;;;;;;5.95;100.00;101358.81;4951716;28;20548;-72
2023/04/07 00:28:17;;;;;;;37.22;17.63;;;;;;;5.95;100.00;101358.81;4966845;28;20045;-73
2023/04/07 00:30:42;;;;;;;40.10;19.00;;;;;;;5.95;100.00;101353.56;4952657;28;20038;-73
2023/04/07 00:33:08;;;;;;;41.83;18.75;;;;;;;5.95;100.00;101350.91;4953635;28;20085;-73
2023/04/07 00:35:33;;;;;;;38.70;18.35;;;;;;;5.95;100.00;101350.91;4937593;28;21722;-72
2023/04/07 00:37:59;;;;;;;37.90;18.05;;;;;;;5.96;100.00;101356.16;4970871;28;20065;-73
2023/04/07 00:40:25;;;;;;;39.65;17.92;;;;;;;5.97;100.00;101346.50;4934810;28;20045;-72
2023/04/07 00:42:51;;;;;;;38.47;19.10;;;;;;;5.97;100.00;101350.00;4966513;28;20134;-73
2023/04/07 00:45:17;;;;;;;41.35;18.40;;;;;;;5.98;100.00;101358.75;4940564;28;20707;-74
2023/04/07 00:47:45;;;;;;;40.40;18.05;;;;;;;5.99;100.00;101342.06;4965534;28;20046;-73
2023/04/07 00:50:11;;;;;;;38.10;18.92;;;;;;;5.98;100.00;101346.47;4966957;28;20060;-72
2023/04/07 00:52:36;;;;;;;40.35;18.63;;;;;;;6.00;100.00;101356.09;4965109;28;20046;-73
2023/04/07 00:55:02;;;;;;;39.20;18.60;;;;;;;6.00;100.00;101356.09;4963513;28;20064;-72
2023/04/07 00:57:28;;;;;;;39.28;18.52;;;;;;;6.00;100.00;101356.97;4953712;28;21199;-73
2023/04/07 00:59:54;;;;;;;41.05;19.10;;;;;;;6.01;100.00;101350.81;4945453;28;20165;-75
2023/04/07 01:02:20;;;;;;;38.25;18.23;;;;;;;6.01;100.00;101358.69;4932332;28;20089;-74
2023/04/07 01:05:02;;;;;;;38.80;18.55;;;;;;;6.04;100.00;101358.66;4961775;28;20042;-73
2023/04/07 01:07:35;;;;;;;42.13;18.73;;;;;;;6.04;100.00;101350.78;4950975;28;20659;-73
2023/04/07 01:10:03;;;;;;;42.25;18.40;;;;;;;6.05;100.00;101349.88;4947041;28;20966;-73
2023/04/07 01:12:52;;;;;;;37.72;18.38;;;;;;;6.07;100.00;101347.22;4923657;28;20038;-73
2023/04/07 01:15:19;;;;;;;41.75;18.25;;;;;;;6.08;100.00;101346.31;4944950;28;20045;-73
2023/04/07 01:17:48;;;;;;;41.75;18.13;;;;;;;6.09;100.00;101351.56;4947153;28;20046;-73
2023/04/07 01:20:16;;;;;;;39.67;18.75;;;;;;;6.11;100.00;101348.91;4963998;28;20035;-73
2023/04/07 01:22:46;;;;;;;40.03;19.05;;;;;;;6.11;100.00;101344.50;4966680;28;20045;-73
2023/04/07 01:25:14;;;;;;;38.90;18.67;;;;;;;6.13;100.00;101341.84;4945332;28;20305;-73
2023/04/07 01:28:02;;;;;;;41.97;18.52;;;;;;;6.13;100.00;101343.59;4964873;28;20039;-72
2023/04/07 01:30:30;;;;;;;36.55;17.83;;;;;;;6.15;100.00;101355.84;4963460;28;20046;-72
2023/04/07 01:32:58;;;;;;;38.97;17.25;;;;;;;6.15;100.00;101350.56;4944462;28;20046;-74
2023/04/07 01:35:24;;;;;;;36.40;16.70;;;;;;;6.15;100.00;101350.56;4964888;28;20040;-73
2023/04/07 01:37:50;;;;;;;36.22;16.92;;;;;;;6.17;100.00;101354.06;4945327;28;20121;-72
2023/04/07 01:40:16;;;;;;;37.80;16.30;;;;;;;6.19;100.00;101351.38;4941655;28;20045;-73
2023/04/07 01:42:42;;;;;;;36.72;16.45;;;;;;;6.20;100.00;101354.00;4945776;28;20045;-73
2023/04/07 01:45:08;;;;;;;38.05;15.57;;;;;;;6.22;100.00;101353.97;4946821;28;20077;-73
2023/04/07 01:47:38;;;;;;;35.85;16.27;;;;;;;6.22;100.00;101352.19;4947021;28;20411;-74
2023/04/07 01:50:04;;;;;;;33.70;15.70;;;;;;;6.25;100.00;101351.28;4947119;28;20069;-74
2023/04/07 01:52:35;;;;;;;35.38;14.93;;;;;;;6.26;100.00;101355.63;4944224;28;20065;-73
2023/04/07 01:55:02;;;;;;;32.55;15.05;;;;;;;6.29;100.00;101354.69;4960574;28;20622;-73
2023/04/07 01:57:27;;;;;;;32.60;13.70;;;;;;;6.31;100.00;101351.16;4957902;28;20266;-73
2023/04/07 01:59:53;;;;;;;28.33;12.75;;;;;;;6.34;100.00;101352.84;4959928;28;20030;-73
2023/04/07 02:02:19;;;;;;;28.08;12.20;;;;;;;6.36;100.00;101358.94;4963683;28;20041;-73
2023/04/07 02:04:55;;;;;;;21.83;10.48;;;;;;;6.37;100.00;101356.28;4946685;28;20129;-73
2023/04/07 02:07:30;;;;;;;22.33;10.25;;;;;;;6.39;100.00;101354.50;4945156;28;20433;-73
2023/04/07 02:09:58;;;;;;;14.35;7.70;;;;;;;6.42;100.00;101352.72;4939828;28;20037;-73
2023/04/07 02:12:26;;;;;;;13.00;6.93;;;;;;;6.43;100.00;101354.44;4947768;28;20494;-73
2023/04/07 02:14:53;;;;;;;14.02;6.80;;;;;;;6.46;100.00;101355.25;4962246;28;20592;-73
2023/04/07 02:17:19;;;;;;;12.77;5.85;;;;;;;6.49;100.00;101354.31;4945360;28;20041;-73
2023/04/07 02:19:45;;;;;;;13.07;6.05;;;;;;;6.50;100.00;101356.91;4946031;28;20039;-73
2023/04/07 02:22:11;;;;;;;18.33;6.22;;;;;;;6.51;100.00;101353.41;4965866;28;20761;-73
2023/04/07 02:24:40;;;;;;;18.23;6.40;;;;;;;6.52;100.00;101354.25;4938484;28;20041;-73
2023/04/07 02:27:06;;;;;;;20.75;6.70;;;;;;;6.53;100.00;101353.34;4961215;28;20035;-72
2023/04/07 02:29:31;;;;;;;15.18;6.32;;;;;;;6.53;100.00;101355.97;4963891;28;20049;-73
2023/04/07 02:31:57;;;;;;;20.75;6.22;;;;;;;6.54;100.00;101362.97;4962125;28;20027;-73
2023/04/07 02:34:22;;;;;;;14.30;6.35;;;;;;;6.55;100.00;101361.22;4964159;28;20077;-73
2023/04/07 02:36:48;;;;;;;21.33;6.70;;;;;;;6.56;100.00;101361.19;4946285;28;20726;-73
2023/04/07 02:39:13;;;;;;;20.00;7.30;;;;;;;6.56;100.00;101362.94;4964229;28;20118;-73
2023/04/07 02:41:39;;;;;;;20.25;6.65;;;;;;;6.55;100.00;101363.84;4964318;28;21014;-73
2023/04/07 02:44:05;;;;;;;22.48;7.78;;;;;;;6.56;100.00;101357.69;4962774;28;20437;-73
2023/04/07 02:46:30;;;;;;;17.60;7.15;;;;;;;6.56;100.00;101361.19;4961585;28;20144;-73
2023/04/07 02:48:56;;;;;;;19.08;7.07;;;;;;;6.57;100.00;101362.91;4927217;28;20796;-73
2023/04/07 02:51:21;;;;;;;15.43;6.80;;;;;;;6.55;100.00;101359.47;4961452;28;21919;-73
2023/04/07 02:53:47;;;;;;;15.63;6.57;;;;;;;6.56;100.00;101361.19;4962629;28;20042;-73
2023/04/07 02:56:14;;;;;;;25.33;7.70;;;;;;;6.56;100.00;101358.56;4946118;28;22075;-73
2023/04/07 02:58:39;;;;;;;17.98;7.15;;;;;;;6.58;100.00;101363.81;4930229;28;21853;-73
2023/04/07 03:01:05;;;;;;;23.27;7.60;;;;;;;6.58;100.00;101363.81;4963265;28;20026;-72
2023/04/07 03:03:30;;;;;;;15.80;6.82;;;;;;;6.59;100.00;101363.75;4961069;28;20497;-72
2023/04/07 03:05:56;;;;;;;20.35;7.20;;;;;;;6.60;100.00;101365.47;4947125;28;20517;-74
2023/04/07 03:08:21;;;;;;;19.35;7.60;;;;;;;6.61;100.00;101361.97;4950393;28;20038;-74
2023/04/07 03:10:47;;;;;;;15.77;7.28;;;;;;;6.61;100.00;101359.34;4967803;28;20070;-74
2023/04/07 03:13:15;;;;;;;19.13;7.80;;;;;;;6.61;100.00;101361.97;4949182;28;20614;-73
2023/04/07 03:15:42;;;;;;;16.38;7.43;;;;;;;6.61;100.00;101361.97;4966762;28;20054;-72
2023/04/07 03:18:07;;;;;;;14.07;6.97;;;;;;;6.62;100.00;101368.97;4950519;28;20056;-73
2023/04/07 03:20:33;;;;;;;16.77;6.93;;;;;;;6.63;100.00;101365.44;4950915;28;20034;-73
2023/04/07 03:22:58;;;;;;;16.52;6.95;;;;;;;6.63;100.00;101368.06;4949370;28;21707;-73
2023/04/07 03:25:25;;;;;;;16.38;7.18;;;;;;;6.63;100.00;101362.81;4966787;28;20105;-74
2023/04/07 03:27:50;;;;;;;19.88;7.07;;;;;;;6.63;100.00;101370.69;4965315;28;20429;-73
2023/04/07 03:30:16;;;;;;;18.52;7.47;;;;;;;6.63;100.00;101362.81;4964802;28;20117;-73
2023/04/07 03:32:42;;;;;;;16.92;7.20;;;;;;;6.63;100.00;101361.91;4967163;28;20536;-73
2023/04/07 03:35:07;;;;;;;16.98;6.97;;;;;;;6.64;100.00;101366.28;4949440;28;20038;-74
2023/04/07 03:37:33;;;;;;;23.75;7.60;;;;;;;6.63;100.00;101360.16;4930983;28;20088;-74
2023/04/07 03:39:59;;;;;;;19.77;7.40;;;;;;;6.64;100.00;101367.16;4967999;28;20068;-73
2023/04/07 03:42:24;;;;;;;24.25;7.60;;;;;;;6.64;100.00;101369.78;4964454;28;20223;-73
2023/04/07 03:44:50;;;;;;;23.70;7.68;;;;;;;6.65;100.00;101368.03;4950712;28;20038;-73
2023/04/07 03:47:15;;;;;;;20.58;7.85;;;;;;;6.65;100.00;101368.88;4946197;28;20528;-73
2023/04/07 03:49:41;;;;;;;20.00;7.60;;;;;;;6.64;100.00;101367.16;4965666;28;21315;-73
2023/04/07 03:52:06;;;;;;;17.15;7.57;;;;;;;6.64;100.00;101369.78;4966390;28;20516;-73
2023/04/07 03:54:34;;;;;;;17.55;7.28;;;;;;;6.64;100.00;101369.78;4966428;28;20058;-73
2023/04/07 03:57:01;;;;;;;13.45;7.03;;;;;;;6.65;100.00;101371.53;4965341;28;20026;-73
2023/04/07 03:59:27;;;;;;;19.98;7.53;;;;;;;6.66;100.00;101385.56;4909266;28;20035;-73
2023/04/07 04:01:52;;;;;;;15.38;6.90;;;;;;;6.65;100.00;101376.78;4932348;28;20148;-73
2023/04/07 04:04:18;;;;;;;18.58;7.53;;;;;;;6.64;100.00;101375.06;4931712;28;20038;-73
2023/04/07 04:06:43;;;;;;;14.35;6.75;;;;;;;6.65;100.00;101382.03;4965685;28;20110;-73
2023/04/07 04:09:09;;;;;;;13.95;6.88;;;;;;;6.64;100.00;101377.69;4966168;28;20134;-74
2023/04/07 04:11:35;;;;;;;13.73;5.72;;;;;;;6.64;100.00;101376.81;4966209;28;20129;-74
2023/04/07 04:14:00;;;;;;;15.20;5.88;;;;;;;6.63;100.00;101383.84;4965358;28;20039;-72
2023/04/07 04:16:26;;;;;;;10.23;4.85;;;;;;;6.64;100.00;101389.97;4962524;28;20045;-72
2023/04/07 04:18:51;;;;;;;13.23;5.47;;;;;;;6.63;100.00;101382.97;4965978;28;20166;-77
2023/04/07 04:21:17;;;;;;;10.73;5.68;;;;;;;6.62;100.00;101384.75;4948636;28;20038;-73
2023/04/07 04:23:43;;;;;;;13.65;5.72;;;;;;;6.63;100.00;101388.22;4963537;28;20168;-73
2023/04/07 04:26:08;;;;;;;11.40;5.28;;;;;;;6.63;100.00;101389.13;4966495;28;20501;-75
2023/04/07 04:28:33;;;;;;;11.02;5.63;;;;;;;6.63;100.00;101397.00;4962890;28;20042;-74
2023/04/07 04:30:59;;;;;;;12.18;5.57;;;;;;;6.65;100.00;101391.72;4966633;28;20121;-73
2023/04/07 04:33:25;;;;;;;16.63;5.40;;;;;;;6.64;100.00;101389.97;4943570;28;20042;-73
2023/04/07 04:35:50;;;;;;;14.43;6.28;;;;;;;6.63;100.00;101402.28;4964333;28;20064;-73
2023/04/07 04:38:15;;;;;;;17.55;5.50;;;;;;;6.62;100.00;101390.00;4965787;28;20035;-73
2023/04/07 04:40:41;;;;;;;15.43;5.32;;;;;;;6.65;100.00;101399.63;4929267;28;20037;-73
2023/04/07 04:43:08;;;;;;;17.05;5.82;;;;;;;6.64;100.00;101406.63;4926573;28;20470;-73
2023/04/07 04:45:34;;;;;;;14.15;5.72;;;;;;;6.64;100.00;101401.38;4962747;28;20131;-73
2023/04/07 04:47:59;;;;;;;22.23;5.82;;;;;;;6.65;100.00;101407.50;4949413;28;20532;-73
2023/04/07 04:50:25;;;;;;;15.93;5.63;;;;;;;6.64;100.00;101417.16;4965767;28;20121;-73
2023/04/07 04:52:51;;;;;;;19.92;6.03;;;;;;;6.65;100.00;101411.00;4962297;28;20076;-72
2023/04/07 04:55:19;;;;;;;13.93;5.22;;;;;;;6.65;100.00;101418.88;4961796;28;20104;-72
2023/04/07 04:57:45;;;;;;;25.08;5.45;;;;;;;6.66;100.00;101419.75;4964732;28;20056;-74
2023/04/07 05:00:11;;;;;;;19.05;6.32;;;;;;;6.66;100.00;101420.63;4963924;28;20412;-74
2023/04/07 05:02:36;;;;;;;20.27;5.72;;;;;;;6.68;100.00;101422.34;4945515;28;20505;-74
2023/04/07 05:05:02;;;;;;;19.83;6.55;;;;;;;6.71;100.00;101427.56;4965628;28;20604;-73
2023/04/07 05:07:28;;;;;;;24.08;9.65;;;;;;;6.70;100.00;101426.69;4964606;28;20390;-73
2023/04/07 05:10:01;;;;;;;35.58;14.38;;;;;;;6.69;100.00;101424.09;4945687;28;20216;-72
2023/04/07 05:12:27;;;;;;;35.22;14.63;;;;;;;6.65;100.00;101432.03;4950792;28;20041;-72
2023/04/07 05:14:52;;;;;;;31.15;14.25;;;;;;;6.62;100.00;101434.75;4969044;28;20132;-72
2023/04/07 05:17:18;;;;;;;33.85;15.48;;;;;;;6.61;100.00;101437.41;4936071;28;20046;-72
2023/04/07 05:19:43;;;;;;;32.17;15.35;;;;;;;6.59;100.00;101445.31;4945996;28;20515;-72
2023/04/07 05:22:09;;;;;;;31.83;14.02;;;;;;;6.56;100.00;101434.88;4964502;28;20042;-73
2023/04/07 05:24:35;;;;;;;31.40;15.07;;;;;;;6.55;100.00;101433.13;4932748;28;20173;-73
2023/04/07 05:27:00;;;;;;;29.77;14.15;;;;;;;6.52;100.00;101439.31;4929719;28;20835;-73
2023/04/07 05:29:26;;;;;;;30.58;14.60;;;;;;;6.51;100.00;101441.97;4961331;28;20208;-73
2023/04/07 05:31:51;;;;;;;32.55;14.60;;;;;;;6.50;100.00;101445.50;4945269;28;20038;-73
2023/04/07 05:34:17;;;;;;;32.30;14.93;;;;;;;6.48;100.00;101448.16;4948491;28;20156;-73
2023/04/07 05:36:42;;;;;;;30.02;14.52;;;;;;;6.47;100.00;101448.16;4944509;28;20046;-73
2023/04/07 05:39:08;;;;;;;30.17;14.57;;;;;;;6.44;100.00;101449.13;4915079;28;20109;-73
2023/04/07 05:41:33;;;;;;;30.00;13.65;;;;;;;6.43;100.00;101451.78;4964378;28;20042;-73
2023/04/07 05:43:59;;;;;;;32.70;14.77;;;;;;;6.44;100.00;101456.13;4943498;28;20117;-73
2023/04/07 05:46:24;;;;;;;30.63;14.10;;;;;;;6.43;100.00;101454.41;4945846;28;20068;-73
2023/04/07 05:48:50;;;;;;;29.40;13.27;;;;;;;6.43;100.00;101451.78;4967402;28;20030;-73
2023/04/07 05:51:16;;;;;;;30.80;14.15;;;;;;;6.41;100.00;101457.06;4962985;28;20214;-73
2023/04/07 05:53:41;;;;;;;30.25;15.05;;;;;;;6.41;100.00;101450.91;4962615;28;20045;-73
2023/04/07 05:56:07;;;;;;;32.80;14.52;;;;;;;6.43;100.00;101451.78;4947621;28;20445;-73
2023/04/07 05:58:32;;;;;;;31.30;13.95;;;;;;;6.44;100.00;101458.75;4948788;28;20493;-73
2023/04/07 06:00:58;;;;;;;30.35;14.60;;;;;;;6.43;100.00;101459.66;4964380;28;20060;-73
2023/04/07 06:03:23;;;;;;;28.42;13.40;;;;;;;6.44;100.00;101464.03;4947025;28;20038;-73
2023/04/07 06:05:49;;;;;;;31.15;14.75;;;;;;;6.44;100.00;101467.53;4966681;28;20064;-73
2023/04/07 06:08:14;;;;;;;31.75;13.57;;;;;;;6.44;100.00;101467.53;4963631;28;20457;-73
2023/04/07 06:10:40;;;;;;;28.35;13.90;;;;;;;6.44;100.00;101480.69;4963998;28;20113;-73
2023/04/07 06:13:06;;;;;;;34.58;14.50;;;;;;;6.44;100.00;101482.44;4947912;28;20181;-73
2023/04/07 06:15:32;;;;;;;28.88;14.02;;;;;;;6.45;100.00;101492.06;4943422;28;20068;-73
2023/04/07 06:17:58;;;;;;;28.73;12.88;;;;;;;6.43;100.00;101489.44;4945423;28;21617;-73
2023/04/07 06:20:24;;;;;;;26.80;12.95;;;;;;;6.45;100.00;101492.06;4962458;28;22312;-73
2023/04/07 06:22:49;;;;;;;27.52;13.10;;;;;;;6.46;100.00;101499.06;4942437;28;20150;-73
2023/04/07 06:25:15;;;;;;;29.58;12.88;;;;;;;6.46;100.00;101501.69;4963505;28;20030;-73
2023/04/07 06:27:40;;;;;;;25.95;12.85;;;;;;;6.45;100.00;101499.94;4945708;28;20038;-74
2023/04/07 06:30:07;;;;;;;24.67;12.40;;;;;;;6.44;100.00;101511.38;4966448;28;20172;-74
2023/04/07 06:32:32;;;;;;;26.20;13.05;;;;;;;6.45;100.00;101513.09;4962878;28;20582;-73
2023/04/07 06:34:58;;;;;;;25.42;11.65;;;;;;;6.45;100.00;101515.72;4943863;28;20126;-73
2023/04/07 06:37:24;;;;;;;23.00;11.23;;;;;;;6.48;100.00;101520.97;4949883;28;20097;-73
2023/04/07 06:39:50;;;;;;;23.52;11.05;;;;;;;6.47;100.00;101513.94;4944607;28;20051;-73
2023/04/07 06:42:16;;;;;;;21.48;10.80;;;;;;;6.47;100.00;101519.19;4964749;28;20039;-73
2023/04/07 06:44:41;;;;;;;21.27;10.25;;;;;;;6.47;100.00;101527.09;4969544;28;20046;-73
2023/04/07 06:47:07;;;;;;;21.25;10.50;;;;;;;6.45;100.00;101523.63;4967747;28;20479;-74
2023/04/07 06:49:33;;;;;;;18.08;9.98;;;;;;;6.44;100.00;101527.16;4966121;28;20465;-73
2023/04/07 06:51:59;;;;;;;20.40;10.48;;;;;;;6.43;100.00;101534.16;4966707;28;20030;-73
2023/04/07 06:54:25;;;;;;;19.73;10.80;;;;;;;6.44;100.00;101530.66;4967639;28;20490;-73
2023/04/07 06:56:50;;;;;;;21.95;10.63;;;;;;;6.47;100.00;101529.72;4948872;28;20085;-73
2023/04/07 06:59:16;;;;;;;19.52;10.35;;;;;;;6.48;100.00;101532.34;4947345;28;20042;-73
2023/04/07 07:01:42;;;;;;;19.98;9.82;;;;;;;6.52;100.00;101539.28;4968115;28;20670;-73
2023/04/07 07:04:08;;;;;;;17.67;9.32;;;;;;;6.54;100.00;101541.03;4967093;28;21607;-73
2023/04/07 07:06:34;;;;;;;18.40;9.75;;;;;;;6.56;100.00;101547.13;4936018;28;20683;-73
2023/04/07 07:08:59;;;;;;;21.25;10.18;;;;;;;6.56;100.00;101540.09;4952344;28;20506;-72
2023/04/07 07:11:26;;;;;;;20.80;10.80;;;;;;;6.58;100.00;101550.59;4937578;28;20109;-73
2023/04/07 07:13:51;;;;;;;20.42;10.45;;;;;;;6.57;100.00;101543.59;4950885;28;20593;-72
2023/04/07 07:16:17;;;;;;;17.75;10.10;;;;;;;6.58;100.00;101548.81;4966717;28;20034;-73
2023/04/07 07:18:42;;;;;;;16.73;9.25;;;;;;;6.59;100.00;101547.94;4940481;28;20030;-73
2023/04/07 07:21:08;;;;;;;19.13;10.20;;;;;;;6.62;100.00;101558.41;4968378;28;20052;-73
2023/04/07 07:23:33;;;;;;;20.00;10.70;;;;;;;6.61;100.00;101564.56;4946185;28;20203;-72
2023/04/07 07:25:59;;;;;;;18.42;10.15;;;;;;;6.61;100.00;101563.69;4964118;28;20125;-76
2023/04/07 07:28:25;;;;;;;19.88;11.02;;;;;;;6.63;100.00;101568.03;4948892;28;20037;-76
2023/04/07 07:30:50;;;;;;;19.63;9.98;;;;;;;6.66;100.00;101567.97;4965809;28;20121;-74
2023/04/07 07:33:16;;;;;;;18.75;9.95;;;;;;;6.66;100.00;101578.50;4967129;28;20053;-72
2023/04/07 07:35:41;;;;;;;18.70;10.45;;;;;;;6.68;100.00;101577.59;4963633;28;20100;-74
2023/04/07 07:38:07;;;;;;;20.70;11.20;;;;;;;6.66;100.00;101583.75;4966788;28;20046;-73
2023/04/07 07:40:33;;;;;;;20.48;10.73;;;;;;;6.66;100.00;101588.19;4948487;28;20583;-72
2023/04/07 07:42:59;;;;;;;21.08;11.27;;;;;;;6.65;100.00;101587.28;4967508;28;20644;-72
2023/04/07 07:45:25;;;;;;;22.17;11.65;;;;;;;6.65;100.00;101586.44;4969834;28;20046;-73
2023/04/07 07:47:50;;;;;;;20.58;10.82;;;;;;;6.67;100.00;101589.91;4969498;28;20245;-73
2023/04/07 07:50:16;;;;;;;19.85;11.27;;;;;;;6.69;100.00;101597.78;4950849;28;20046;-72
2023/04/07 07:52:42;;;;;;;22.13;10.85;;;;;;;6.68;100.00;101596.91;4951231;28;20086;-73
2023/04/07 07:55:08;;;;;;;22.65;11.43;;;;;;;6.69;100.00;101597.78;4971490;28;20441;-73
2023/04/07 07:57:33;;;;;;;20.13;10.90;;;;;;;6.68;100.00;101602.16;4965989;28;20046;-72
2023/04/07 07:59:59;;;;;;;20.02;11.07;;;;;;;6.67;100.00;101605.69;4968341;28;20046;-72
2023/04/07 08:02:29;;;;;;;20.05;11.07;;;;;;;6.68;100.00;101606.53;4948446;28;20054;-73
2023/04/07 08:04:56;;;;;;;20.58;11.05;;;;;;;6.68;100.00;101615.31;4932377;28;20053;-73
2023/04/07 08:07:21;;;;;;;18.83;10.30;;;;;;;6.69;100.00;101614.44;4966588;28;20033;-73
2023/04/07 08:09:47;;;;;;;18.60;10.70;;;;;;;6.71;100.00;101617.03;4949162;28;20065;-73
2023/04/07 08:12:13;;;;;;;19.38;10.85;;;;;;;6.74;100.00;101624.88;4966367;28;20065;-73
2023/04/07 08:14:38;;;;;;;21.30;10.90;;;;;;;6.77;100.00;101632.72;4933389;28;20053;-73
2023/04/07 08:17:04;;;;;;;21.13;11.32;;;;;;;6.79;100.00;101630.94;4931653;28;20248;-75
2023/04/07 08:19:29;;;;;;;21.27;11.00;;;;;;;6.80;100.00;101632.66;4948836;28;20052;-76
2023/04/07 08:21:55;;;;;;;24.15;11.82;;;;;;;6.79;100.00;101638.81;4963996;28;20070;-73
2023/04/07 08:24:21;;;;;;;21.73;11.23;;;;;;;6.79;100.00;101639.72;4951839;28;20059;-73
2023/04/07 08:26:46;;;;;;;20.52;11.00;;;;;;;6.82;100.00;101649.31;4933055;28;20398;-73
2023/04/07 08:29:12;;;;;;;20.65;10.93;;;;;;;6.82;100.00;101657.22;4971509;28;20034;-73
2023/04/07 08:31:38;;;;;;;18.52;10.45;;;;;;;6.83;100.00;101652.81;4961619;28;20053;-73
2023/04/07 08:34:03;;;;;;;20.00;10.77;;;;;;;6.84;100.00;101652.78;4963915;28;20058;-73
2023/04/07 08:36:29;;;;;;;19.17;10.43;;;;;;;6.86;100.00;101655.41;4953129;28;20029;-73
2023/04/07 08:38:54;;;;;;;16.63;9.35;;;;;;;6.85;100.00;101654.53;4951303;28;20037;-73
2023/04/07 08:41:40;;;;;;;17.17;8.90;;;;;;;6.85;100.00;101651.88;4971529;28;20428;-73
2023/04/07 08:44:09;;;;;;;15.60;8.88;;;;;;;6.85;100.00;101656.28;4966949;28;20042;-77
2023/04/07 08:46:37;;;;;;;18.63;9.15;;;;;;;6.84;100.00;101660.69;4949109;28;20033;-74
2023/04/07 08:49:12;;;;;;;17.83;9.88;;;;;;;6.88;100.00;101667.66;4954024;28;20031;-74
2023/04/07 08:51:46;;;;;;;17.75;9.38;;;;;;;6.92;100.00;101668.47;4951970;28;20038;-72
2023/04/07 08:54:14;;;;;;;20.30;10.27;;;;;;;6.93;100.00;101681.56;4959722;28;20589;-71
2023/04/07 08:56:41;;;;;;;16.80;9.60;;;;;;;6.97;100.00;101682.41;4962379;28;20066;-72
2023/04/07 08:59:08;;;;;;;17.67;9.73;;;;;;;6.98;100.00;101681.50;4947424;28;20108;-72
2023/04/07 09:01:35;;;;;;;18.90;10.10;;;;;;;6.97;100.00;101687.66;4964511;28;20046;-72
2023/04/07 09:04:06;;;;;;;19.08;10.10;;;;;;;6.99;100.00;101679.75;4960603;28;20390;-73
2023/04/07 09:06:32;;;;;;;19.08;10.23;;;;;;;7.04;100.00;101688.44;4968663;28;20042;-72
2023/04/07 09:09:01;;;;;;;18.02;10.60;;;;;;;7.04;100.00;101691.06;4962342;28;20394;-72
2023/04/07 09:11:28;;;;;;;17.00;9.98;;;;;;;7.04;100.00;101688.44;4930054;28;20038;-72
2023/04/07 09:13:54;;;;;;;16.67;9.57;;;;;;;7.09;100.00;101686.59;4961420;28;20034;-73
2023/04/07 09:16:23;;;;;;;17.10;9.77;;;;;;;7.11;100.00;101689.19;4966999;28;20041;-72
2023/04/07 09:18:48;;;;;;;17.55;9.63;;;;;;;7.15;100.00;101689.09;4965737;28;20100;-73
2023/04/07 09:21:14;;;;;;;16.65;9.23;;;;;;;7.18;100.00;101691.69;4962005;28;20077;-73
2023/04/07 09:23:41;;;;;;;15.18;8.85;;;;;;;7.26;100.00;101688.06;4951219;28;20038;-73
2023/04/07 09:26:27;;;;;;;17.75;10.10;;;;;;;7.32;100.00;101687.94;4967576;28;20042;-74
2023/04/07 09:28:58;;;;;;;15.80;9.43;;;;;;;7.38;100.00;101681.69;4970294;28;20057;-73
2023/04/07 09:31:46;;;;;;;17.90;10.05;;;;;;;7.41;100.00;101682.50;4947539;28;20045;-73
2023/04/07 09:34:26;;;;;;;19.65;11.00;;;;;;;7.51;100.00;101679.72;4965260;28;20474;-73
2023/04/07 09:36:52;;;;;;;18.27;10.82;;;;;;;7.59;100.00;101683.06;4949758;28;20654;-74
2023/04/07 09:39:18;;;;;;;20.38;11.30;;;;;;;7.69;100.00;101692.50;4947015;28;20067;-74
2023/04/07 09:41:44;;;;;;;20.90;11.65;;;;;;;7.79;100.00;101703.75;4948993;28;20026;-74
2023/04/07 09:44:09;;;;;;;23.60;12.55;;;;;;;7.86;100.00;101700.06;4947650;28;20727;-74
2023/04/07 09:46:51;;;;;;;22.02;12.10;;;;;;;7.91;100.00;101702.66;4930510;28;20038;-74
2023/04/07 09:49:19;;;;;;;21.55;12.50;;;;;;;7.92;100.00;101704.38;4964844;28;20600;-72
2023/04/07 09:51:56;;;;;;;20.73;11.75;;;;;;;7.95;100.00;101709.56;4959695;28;20034;-72
2023/04/07 09:54:33;;;;;;;22.08;12.40;;;;;;;7.95;100.00;101704.31;4923243;28;20748;-73
2023/04/07 09:57:00;;;;;;;21.88;12.50;;;;;;;7.93;100.00;101711.38;4938164;28;20037;-73
2023/04/07 09:59:27;;;;;;;22.48;12.63;;;;;;;7.96;100.00;101711.31;4933431;28;20407;-73
2023/04/07 10:01:53;;;;;;;23.55;12.82;;;;;;;7.98;100.00;101719.19;4968816;28;20041;-75
2023/04/07 10:04:19;;;;;;;20.55;11.23;;;;;;;8.05;100.00;101719.94;4949221;28;20421;-74
2023/04/07 10:06:45;;;;;;;20.55;12.48;;;;;;;8.11;100.00;101715.41;4948667;28;20765;-73
2023/04/07 10:09:10;;;;;;;20.05;11.15;;;;;;;8.20;100.00;101719.63;4951265;28;20046;-73
2023/04/07 10:11:36;;;;;;;19.35;12.15;;;;;;;8.23;100.00;101710.78;4933399;28;20580;-73
2023/04/07 10:14:02;;;;;;;20.63;11.38;;;;;;;8.25;100.00;101719.50;4933652;28;21289;-72
2023/04/07 10:16:28;;;;;;;19.50;11.35;;;;;;;8.29;100.00;101719.41;4926458;28;20042;-73
2023/04/07 10:18:54;;;;;;;16.15;10.70;;;;;;;8.37;100.00;101721.00;4930432;28;20116;-73
2023/04/07 10:21:20;;;;;;;17.40;10.18;;;;;;;8.40;100.00;101716.53;4965000;28;20528;-73
2023/04/07 10:23:59;;;;;;;15.43;9.40;;;;;;;8.47;100.00;101716.41;4961527;28;20046;-72
2023/04/07 10:26:29;;;;;;;17.45;10.13;;;;;;;8.50;100.00;101725.09;4945916;28;20042;-72
2023/04/07 10:28:59;;;;;;;15.85;9.90;;;;;;;8.54;100.00;101732.09;4964724;28;20374;-73
2023/04/07 10:31:25;;;;;;;14.57;9.25;;;;;;;8.58;100.00;101734.66;4950262;28;20271;-74
2023/04/07 10:33:52;;;;;;;15.10;8.90;;;;;;;8.59;100.00;101736.38;4931673;28;20641;-74
2023/04/07 10:36:19;;;;;;;14.40;8.45;;;;;;;8.60;100.00;101738.16;4950586;28;20038;-73
2023/04/07 10:39:07;;;;;;;13.82;8.85;;;;;;;8.60;100.00;101739.00;4965750;28;20141;-73
2023/04/07 10:41:37;;;;;;;11.75;8.02;;;;;;;8.58;100.00;101747.84;4966879;28;20096;-73
2023/04/07 10:44:03;;;;;;;13.27;7.68;;;;;;;8.52;100.00;101746.22;4966944;28;20103;-73
2023/04/07 10:47:03;;;;;;;11.80;8.15;;;;;;;8.48;100.00;101755.97;4934972;28;20394;-73
2023/04/07 10:49:29;;;;;;;10.60;6.85;;;;;;;8.47;100.00;101755.97;4939583;28;20041;-72
2023/04/07 10:52:10;;;;;;;11.10;7.32;;;;;;;8.45;100.00;101753.41;4946659;28;20481;-72
2023/04/07 10:54:35;;;;;;;10.60;6.88;;;;;;;8.46;100.00;101759.53;4948337;28;20034;-72
2023/04/07 10:57:09;;;;;;;9.95;6.55;;;;;;;8.46;100.00;101765.69;4947266;28;20269;-73
2023/04/07 10:59:35;;;;;;;10.88;7.13;;;;;;;8.50;100.00;101762.06;4951472;28;20034;-73
2023/04/07 11:02:13;;;;;;;9.85;6.70;;;;;;;8.54;100.00;101760.25;4969294;28;20046;-74
2023/04/07 11:04:41;;;;;;;12.27;7.43;;;;;;;8.54;100.00;101763.78;4969943;28;20054;-73
2023/04/07 11:07:07;;;;;;;13.00;7.53;;;;;;;8.56;100.00;101772.50;4950872;28;20034;-74
2023/04/07 11:09:33;;;;;;;12.93;7.45;;;;;;;8.54;100.00;101768.16;4912797;28;20042;-73
2023/04/07 11:11:58;;;;;;;10.80;7.65;;;;;;;8.52;100.00;101776.16;4963393;28;20268;-74